createdAt,value
2022-11-24T00:01:04.732Z,14.52
2022-11-24T00:03:31.928Z,15.48
2022-11-24T00:06:07.868Z,15.52
2022-11-24T00:08:36.264Z,13.30
2022-11-24T00:11:08.265Z,14.43
2022-11-24T00:13:36.222Z,14.27
2022-11-24T00:16:12.041Z,13.38
2022-11-24T00:18:40.434Z,13.02
2022-11-24T00:21:07.863Z,14.10
2022-11-24T00:23:36.376Z,12.63
2022-11-24T00:26:05.482Z,15.80
2022-11-24T00:28:34.181Z,13.55
2022-11-24T00:31:02.634Z,12.50
2022-11-24T00:33:29.702Z,11.90
2022-11-24T00:36:00.755Z,14.70
2022-11-24T00:38:28.005Z,13.40
2022-11-24T00:40:54.965Z,16.08
2022-11-24T00:43:22.012Z,15.88
2022-11-24T00:45:49.224Z,14.98
2022-11-24T00:48:16.272Z,15.10
2022-11-24T00:50:43.287Z,13.73
2022-11-24T00:53:10.441Z,15.52
2022-11-24T00:55:37.457Z,15.48
2022-11-24T00:58:04.462Z,13.82
2022-11-24T01:00:31.487Z,11.20
2022-11-24T01:02:58.538Z,11.13
2022-11-24T01:05:25.574Z,15.70
2022-11-24T01:07:52.637Z,12.48
2022-11-24T01:10:19.804Z,12.23
2022-11-24T01:12:47.906Z,12.88
2022-11-24T01:15:14.891Z,11.25
2022-11-24T01:17:41.975Z,13.20
2022-11-24T01:20:09.692Z,12.82
2022-11-24T01:22:38.733Z,16.58
2022-11-24T01:25:06.921Z,12.00
2022-11-24T01:27:33.937Z,14.13
2022-11-24T01:30:00.971Z,11.27
2022-11-24T01:32:28.012Z,11.73
2022-11-24T01:34:55.058Z,11.85
2022-11-24T01:37:22.054Z,11.05
2022-11-24T01:39:49.033Z,13.95
2022-11-24T01:42:15.975Z,15.02
2022-11-24T01:44:43.564Z,11.20
2022-11-24T01:47:16.378Z,10.57
2022-11-24T01:49:58.802Z,11.82
2022-11-24T01:52:31.646Z,13.98
2022-11-24T01:55:02.774Z,12.70
2022-11-24T01:57:38.840Z,14.98
2022-11-24T02:00:10.110Z,15.75
2022-11-24T02:02:37.367Z,10.63
2022-11-24T02:05:17.813Z,13.70
2022-11-24T02:07:45.725Z,11.63
2022-11-24T02:10:15.065Z,15.05
2022-11-24T02:12:46.546Z,13.25
2022-11-24T02:15:17.536Z,13.52
2022-11-24T02:17:45.696Z,14.48
2022-11-24T02:20:15.176Z,11.57
2022-11-24T02:23:01.944Z,18.13
2022-11-24T02:25:50.064Z,14.88
2022-11-24T02:28:21.687Z,14.98
2022-11-24T02:30:49.801Z,15.63
2022-11-24T02:33:17.647Z,14.65
2022-11-24T02:35:44.666Z,15.45
2022-11-24T02:38:15.216Z,15.75
2022-11-24T02:40:46.786Z,19.08
2022-11-24T02:43:20.809Z,15.00
2022-11-24T02:45:48.346Z,17.73
2022-11-24T02:48:16.442Z,13.95
2022-11-24T02:50:43.678Z,16.33
2022-11-24T02:53:10.675Z,18.30
2022-11-24T02:55:37.699Z,14.95
2022-11-24T02:58:04.732Z,19.35
2022-11-24T03:00:31.911Z,20.33
2022-11-24T03:02:58.948Z,19.90
2022-11-24T03:05:25.991Z,17.50
2022-11-24T03:07:53.158Z,16.30
2022-11-24T03:10:20.180Z,16.55
2022-11-24T03:12:47.173Z,23.40
2022-11-24T03:15:14.130Z,19.83
2022-11-24T03:17:41.164Z,21.23
2022-11-24T03:20:09.020Z,19.73
2022-11-24T03:22:37.471Z,19.52
2022-11-24T03:25:05.313Z,20.33
2022-11-24T03:27:32.346Z,19.60
2022-11-24T03:29:59.804Z,19.05
2022-11-24T03:32:26.788Z,21.88
2022-11-24T03:34:53.738Z,20.92
2022-11-24T03:37:21.241Z,26.02
2022-11-24T03:39:48.398Z,21.70
2022-11-24T03:42:15.552Z,23.20
2022-11-24T03:44:42.611Z,23.55
2022-11-24T03:47:11.440Z,19.15
2022-11-24T03:49:39.304Z,21.02
2022-11-24T03:52:08.237Z,24.08
2022-11-24T03:54:35.704Z,24.23
2022-11-24T03:57:03.041Z,26.30
2022-11-24T03:59:30.098Z,24.70
2022-11-24T04:01:57.477Z,20.35
2022-11-24T04:04:24.484Z,25.58
2022-11-24T04:06:51.489Z,19.33
2022-11-24T04:09:18.562Z,22.13
2022-11-24T04:12:08.576Z,21.25
2022-11-24T04:14:35.922Z,25.05
2022-11-24T04:17:04.534Z,19.65
2022-11-24T04:19:31.672Z,20.55
2022-11-24T04:21:58.666Z,18.60
2022-11-24T04:24:25.660Z,25.52
2022-11-24T04:26:52.600Z,21.00
2022-11-24T04:29:19.653Z,22.40
2022-11-24T04:31:46.685Z,20.90
2022-11-24T04:34:13.846Z,19.85
2022-11-24T04:36:41.218Z,17.98
2022-11-24T04:39:25.421Z,15.68
2022-11-24T04:41:53.958Z,16.08
2022-11-24T04:44:20.955Z,20.70
2022-11-24T04:46:48.031Z,16.13
2022-11-24T04:49:15.090Z,16.55
2022-11-24T04:51:42.311Z,15.85
2022-11-24T04:54:11.891Z,21.27
2022-11-24T04:56:39.630Z,18.92
2022-11-24T04:59:08.496Z,19.83
2022-11-24T05:01:36.222Z,16.50
2022-11-24T05:04:03.293Z,16.90
2022-11-24T05:06:30.371Z,19.92
2022-11-24T05:08:57.392Z,18.88
2022-11-24T05:11:24.368Z,14.05
2022-11-24T05:13:53.445Z,16.20
2022-11-24T05:16:20.558Z,14.95
2022-11-24T05:18:47.616Z,15.50
2022-11-24T05:21:14.603Z,15.65
2022-11-24T05:23:41.555Z,17.70
2022-11-24T05:26:08.548Z,16.35
2022-11-24T05:28:35.541Z,17.50
2022-11-24T05:31:03.766Z,14.50
2022-11-24T05:33:33.447Z,19.08
2022-11-24T05:36:02.637Z,17.38
2022-11-24T05:38:30.487Z,20.45
2022-11-24T05:41:02.059Z,15.98
2022-11-24T05:43:29.679Z,15.32
2022-11-24T05:46:00.848Z,15.05
2022-11-24T05:48:28.245Z,16.13
2022-11-24T05:50:58.814Z,17.88
2022-11-24T05:53:27.257Z,17.00
2022-11-24T05:55:54.491Z,20.83
2022-11-24T05:58:21.508Z,14.90
2022-11-24T06:00:48.698Z,20.60
2022-11-24T06:03:15.804Z,20.92
2022-11-24T06:05:47.475Z,17.42
2022-11-24T06:08:14.910Z,20.10
2022-11-24T06:10:42.553Z,18.55
2022-11-24T06:13:09.586Z,16.98
2022-11-24T06:15:37.975Z,17.13
2022-11-24T06:18:05.027Z,17.40
2022-11-24T06:20:33.061Z,18.88
2022-11-24T06:23:01.785Z,19.38
2022-11-24T06:25:29.639Z,19.02
2022-11-24T06:27:56.747Z,19.58
2022-11-24T06:30:23.681Z,20.88
2022-11-24T06:32:55.738Z,20.33
2022-11-24T06:35:22.767Z,20.30
2022-11-24T06:37:49.693Z,17.65
2022-11-24T06:40:17.096Z,18.48
2022-11-24T06:42:50.636Z,18.17
2022-11-24T06:45:17.687Z,15.38
2022-11-24T06:47:44.589Z,20.15
2022-11-24T06:50:11.917Z,17.70
2022-11-24T06:52:38.944Z,19.63
2022-11-24T06:55:06.636Z,22.48
2022-11-24T06:57:34.033Z,19.45
2022-11-24T07:00:01.036Z,19.40
2022-11-24T07:02:27.987Z,15.68
2022-11-24T07:04:54.985Z,15.63
2022-11-24T07:07:22.091Z,16.52
2022-11-24T07:09:49.114Z,16.15
2022-11-24T07:12:16.097Z,12.55
2022-11-24T07:14:43.134Z,15.80
2022-11-24T07:17:10.107Z,17.85
2022-11-24T07:19:37.185Z,15.70
2022-11-24T07:22:04.214Z,16.17
2022-11-24T07:24:31.156Z,24.63
2022-11-24T07:26:58.182Z,18.38
2022-11-24T07:29:25.168Z,13.00
2022-11-24T07:31:52.211Z,17.30
2022-11-24T07:34:19.180Z,19.50
2022-11-24T07:36:46.177Z,16.77
2022-11-24T07:39:13.228Z,12.93
2022-11-24T07:41:40.245Z,15.60
2022-11-24T07:44:07.273Z,19.20
2022-11-24T07:46:34.261Z,15.23
2022-11-24T07:49:01.241Z,16.35
2022-11-24T07:51:28.204Z,17.08
2022-11-24T07:53:55.304Z,20.85
2022-11-24T07:56:22.355Z,18.52
2022-11-24T07:58:52.832Z,22.48
2022-11-24T08:01:20.946Z,18.98
2022-11-24T08:03:48.222Z,14.55
2022-11-24T08:06:27.350Z,14.38
2022-11-24T08:08:58.405Z,18.15
2022-11-24T08:11:26.513Z,15.45
2022-11-24T08:13:53.491Z,16.65
2022-11-24T08:16:20.786Z,13.45
2022-11-24T08:18:52.847Z,17.05
2022-11-24T08:21:20.357Z,15.15
2022-11-24T08:23:47.334Z,16.73
2022-11-24T08:26:18.139Z,15.13
2022-11-24T08:28:47.037Z,18.05
2022-11-24T08:31:18.750Z,18.88
2022-11-24T08:33:46.476Z,14.57
2022-11-24T08:36:16.450Z,15.48
2022-11-24T08:38:44.923Z,15.20
2022-11-24T08:41:15.114Z,16.70
2022-11-24T08:43:42.748Z,12.25
2022-11-24T08:46:17.374Z,12.25
2022-11-24T08:48:54.686Z,14.02
2022-11-24T08:51:25.367Z,12.10
2022-11-24T08:54:00.974Z,13.02
2022-11-24T08:56:30.560Z,14.68
2022-11-24T08:58:58.677Z,14.55
2022-11-24T09:01:27.214Z,13.32
2022-11-24T09:03:55.538Z,18.02
2022-11-24T09:06:26.084Z,15.20
2022-11-24T09:08:54.834Z,26.10
2022-11-24T09:11:23.075Z,19.23
2022-11-24T09:13:50.330Z,15.15
2022-11-24T09:16:20.586Z,16.85
2022-11-24T09:18:48.047Z,15.30
2022-11-24T09:21:18.899Z,13.77
2022-11-24T09:23:50.933Z,16.75
2022-11-24T09:26:23.300Z,16.20
2022-11-24T09:28:54.689Z,16.52
2022-11-24T09:31:24.416Z,13.85
2022-11-24T09:33:52.535Z,14.63
2022-11-24T09:36:20.110Z,16.42
2022-11-24T09:38:47.136Z,9.10
2022-11-24T09:41:38.067Z,12.02
2022-11-24T09:44:23.640Z,13.05
2022-11-24T09:47:09.277Z,9.25
2022-11-24T09:49:51.395Z,9.65
2022-11-24T09:52:36.015Z,11.02
2022-11-24T09:55:15.211Z,11.80
2022-11-24T09:57:44.215Z,7.95
2022-11-24T10:00:15.158Z,12.05
2022-11-24T10:02:50.669Z,7.15
2022-11-24T10:05:18.489Z,13.55
2022-11-24T10:08:08.169Z,12.20
2022-11-24T10:10:49.158Z,14.05
2022-11-24T10:13:46.193Z,11.70
2022-11-24T10:16:26.555Z,14.05
2022-11-24T10:19:22.214Z,12.43
2022-11-24T10:22:02.592Z,17.58
2022-11-24T10:24:50.629Z,18.63
2022-11-24T10:27:44.915Z,23.17
2022-11-24T10:30:21.615Z,22.38
2022-11-24T10:33:12.467Z,15.90
2022-11-24T10:35:47.227Z,17.17
2022-11-24T10:38:20.375Z,11.57
2022-11-24T10:41:07.275Z,14.15
2022-11-24T10:43:34.468Z,9.65
2022-11-24T10:46:10.042Z,14.23
2022-11-24T10:48:59.204Z,17.02
2022-11-24T10:51:32.333Z,28.27
2022-11-24T10:54:17.214Z,10.82
2022-11-24T10:56:46.238Z,12.55
2022-11-24T10:59:25.150Z,11.30
2022-11-24T11:01:55.243Z,10.98
2022-11-24T11:04:29.352Z,11.70
2022-11-24T11:07:22.399Z,9.40
2022-11-24T11:09:50.032Z,11.95
2022-11-24T11:15:29.172Z,11.95
2022-11-24T11:18:02.415Z,10.05
2022-11-24T11:20:32.260Z,14.38
2022-11-24T11:23:03.909Z,8.52
2022-11-24T11:25:36.375Z,8.98
2022-11-24T11:28:18.959Z,4.80
2022-11-24T11:31:18.983Z,9.05
2022-11-24T11:34:25.033Z,8.30
2022-11-24T11:36:59.331Z,4.75
2022-11-24T11:39:35.294Z,4.88
2022-11-24T11:42:53.606Z,6.97
2022-11-24T11:45:14.068Z,6.82
2022-11-24T11:47:52.666Z,5.28
2022-11-24T11:51:20.958Z,4.82
2022-11-24T11:53:33.336Z,4.18
2022-11-24T11:56:17.428Z,4.72
2022-11-24T11:58:56.986Z,5.22
2022-11-24T12:01:30.123Z,5.43
2022-11-24T12:04:17.096Z,6.95
2022-11-24T12:07:22.507Z,5.13
2022-11-24T12:10:13.305Z,5.25
2022-11-24T12:12:40.227Z,2.45
2022-11-24T12:15:31.550Z,3.30
2022-11-24T12:18:48.695Z,4.47
2022-11-24T12:21:17.952Z,7.20
2022-11-24T12:24:16.503Z,7.35
2022-11-24T12:26:58.316Z,6.45
2022-11-24T12:29:46.366Z,4.80
2022-11-24T12:32:22.064Z,5.30
2022-11-24T12:35:01.021Z,4.13
2022-11-24T12:37:44.006Z,8.10
2022-11-24T12:40:49.784Z,3.33
2022-11-24T12:43:23.072Z,5.72
2022-11-24T12:46:01.586Z,6.15
2022-11-24T12:48:51.508Z,7.38
2022-11-24T12:51:21.066Z,5.38
2022-11-24T12:53:50.995Z,6.63
2022-11-24T12:56:26.069Z,14.63
2022-11-24T12:59:12.955Z,11.60
2022-11-24T13:02:03.193Z,6.40
2022-11-24T13:05:03.273Z,6.75
2022-11-24T13:07:47.955Z,8.70
2022-11-24T13:10:46.588Z,9.00
2022-11-24T13:13:13.575Z,4.47
2022-11-24T13:16:13.046Z,4.28
2022-11-24T13:19:04.354Z,6.38
2022-11-24T13:21:43.024Z,6.32
2022-11-24T13:24:20.070Z,7.45
2022-11-24T13:26:50.140Z,13.20
2022-11-24T13:29:37.175Z,15.63
2022-11-24T13:32:07.074Z,6.50
2022-11-24T13:34:39.840Z,3.67
2022-11-24T13:37:31.651Z,4.72
2022-11-24T13:40:14.643Z,4.43
2022-11-24T13:42:57.405Z,5.15
2022-11-24T13:45:40.066Z,3.75
2022-11-24T13:48:19.538Z,3.58
2022-11-24T13:50:58.717Z,2.67
2022-11-24T13:53:41.039Z,7.45
2022-11-24T13:56:13.926Z,3.03
2022-11-24T13:58:44.290Z,3.33
2022-11-24T14:01:13.148Z,5.22
2022-11-24T14:06:53.310Z,5.38
2022-11-24T14:09:38.783Z,4.63
2022-11-24T14:12:13.597Z,8.23
2022-11-24T14:14:41.812Z,36.53
2022-11-24T14:17:20.885Z,19.63
2022-11-24T14:19:50.121Z,9.32
2022-11-24T14:22:37.208Z,5.78
2022-11-24T14:25:04.480Z,7.88
2022-11-24T14:27:39.069Z,5.43
2022-11-24T14:30:15.593Z,4.85
2022-11-24T14:32:58.245Z,16.45
2022-11-24T14:35:33.947Z,6.60
2022-11-24T14:38:05.805Z,7.63
2022-11-24T14:41:06.812Z,4.88
2022-11-24T14:43:36.407Z,5.38
2022-11-24T14:46:09.412Z,7.75
2022-11-24T14:48:46.778Z,6.40
2022-11-24T14:51:31.843Z,5.13
2022-11-24T14:54:02.012Z,6.20
2022-11-24T14:56:38.108Z,5.63
2022-11-24T14:59:21.790Z,3.33
2022-11-24T15:01:48.898Z,4.07
2022-11-24T15:07:29.327Z,4.72
2022-11-24T15:09:58.431Z,3.78
2022-11-24T15:12:36.175Z,6.05
2022-11-24T15:15:06.592Z,4.75
2022-11-24T15:17:34.257Z,4.95
2022-11-24T15:20:06.573Z,5.22
2022-11-24T15:22:40.477Z,13.95
2022-11-24T15:25:27.772Z,7.80
2022-11-24T15:27:54.971Z,7.40
2022-11-24T15:30:22.127Z,6.13
2022-11-24T15:32:53.751Z,16.38
2022-11-24T15:35:22.868Z,7.32
2022-11-24T15:37:50.664Z,15.05
2022-11-24T15:40:18.449Z,10.40
2022-11-24T15:42:55.969Z,8.75
2022-11-24T15:45:25.261Z,8.65
2022-11-24T15:47:52.608Z,7.63
2022-11-24T15:50:20.649Z,13.35
2022-11-24T15:52:51.124Z,5.18
2022-11-24T15:55:21.316Z,8.00
2022-11-24T15:57:49.123Z,14.40
2022-11-24T16:00:22.195Z,6.28
2022-11-24T16:02:49.985Z,8.63
2022-11-24T16:05:18.140Z,8.18
2022-11-24T16:07:45.700Z,6.13
2022-11-24T16:10:26.158Z,7.20
2022-11-24T16:12:53.278Z,7.75
2022-11-24T16:15:20.498Z,10.13
2022-11-24T16:17:48.750Z,9.98
2022-11-24T16:20:16.387Z,12.15
2022-11-24T16:22:43.928Z,31.50
2022-11-24T16:25:12.077Z,10.60
2022-11-24T16:27:39.934Z,14.00
2022-11-24T16:30:08.779Z,11.32
2022-11-24T16:32:36.192Z,4.63
2022-11-24T16:35:03.389Z,5.97
2022-11-24T16:37:30.552Z,5.30
2022-11-24T16:39:58.552Z,4.85
2022-11-24T16:42:26.264Z,4.70
2022-11-24T16:44:53.546Z,3.17
2022-11-24T16:47:21.028Z,2.80
2022-11-24T16:49:48.495Z,3.92
2022-11-24T16:52:16.862Z,5.05
2022-11-24T16:54:45.624Z,2.55
2022-11-24T16:57:15.079Z,3.58
2022-11-24T16:59:46.456Z,2.50
2022-11-24T17:02:14.159Z,2.30
2022-11-24T17:04:42.530Z,2.30
2022-11-24T17:07:09.629Z,5.13
2022-11-24T17:09:40.758Z,3.63
2022-11-24T17:12:08.503Z,2.60
2022-11-24T17:14:35.796Z,4.60
2022-11-24T17:17:05.259Z,4.15
2022-11-24T17:19:32.440Z,2.50
2022-11-24T17:21:59.837Z,5.13
2022-11-24T17:24:27.101Z,3.10
2022-11-24T17:26:55.479Z,2.75
2022-11-24T17:29:22.801Z,2.22
2022-11-24T17:31:50.472Z,3.05
2022-11-24T17:34:18.160Z,3.47
2022-11-24T17:36:46.566Z,1.90
2022-11-24T17:39:14.276Z,2.72
2022-11-24T17:41:43.369Z,3.08
2022-11-24T17:44:12.850Z,5.05
2022-11-24T17:46:40.462Z,3.28
2022-11-24T17:49:09.001Z,4.70
2022-11-24T17:51:36.880Z,5.35
2022-11-24T17:54:24.692Z,4.05
2022-11-24T17:56:52.851Z,8.75
2022-11-24T17:59:20.575Z,7.97
2022-11-24T18:01:48.590Z,6.68
2022-11-24T18:04:19.584Z,3.92
2022-11-24T18:06:48.373Z,6.25
2022-11-24T18:09:16.109Z,5.97
2022-11-24T18:11:46.248Z,6.47
2022-11-24T18:14:13.908Z,7.45
2022-11-24T18:16:41.606Z,8.30
2022-11-24T18:19:12.128Z,7.15
2022-11-24T18:21:46.414Z,12.20
2022-11-24T18:24:18.578Z,8.05
2022-11-24T18:26:50.908Z,6.85
2022-11-24T18:29:18.771Z,5.82
2022-11-24T18:31:46.766Z,7.43
2022-11-24T18:34:13.979Z,7.50
2022-11-24T18:36:41.609Z,9.98
2022-11-24T18:39:09.933Z,7.03
2022-11-24T18:41:37.446Z,10.30
2022-11-24T18:44:08.673Z,8.65
2022-11-24T18:46:40.409Z,7.00
2022-11-24T18:49:08.342Z,6.50
2022-11-24T18:51:35.980Z,10.45
2022-11-24T18:54:06.581Z,9.82
2022-11-24T18:56:34.763Z,8.43
2022-11-24T18:59:03.012Z,6.13
2022-11-24T19:01:30.905Z,8.65
2022-11-24T19:04:03.110Z,7.15
2022-11-24T19:06:36.981Z,8.80
2022-11-24T19:09:12.410Z,12.18
2022-11-24T19:11:44.848Z,8.60
2022-11-24T19:14:16.080Z,11.43
2022-11-24T19:16:44.161Z,10.95
2022-11-24T19:19:13.618Z,19.98
2022-11-24T19:21:41.976Z,9.70
2022-11-24T19:24:10.946Z,10.52
2022-11-24T19:26:39.609Z,8.73
2022-11-24T19:29:08.578Z,8.13
2022-11-24T19:31:39.331Z,9.32
2022-11-24T19:34:08.585Z,9.43
2022-11-24T19:36:36.645Z,10.38
2022-11-24T19:39:05.569Z,8.20
2022-11-24T19:41:34.593Z,9.35
2022-11-24T19:44:02.756Z,14.25
2022-11-24T19:46:34.456Z,13.10
2022-11-24T19:49:03.123Z,19.30
2022-11-24T19:51:33.560Z,11.65
2022-11-24T19:54:01.510Z,11.30
2022-11-24T19:56:34.760Z,8.23
2022-11-24T19:59:04.831Z,10.90
2022-11-24T20:01:38.361Z,8.90
2022-11-24T20:04:13.084Z,6.55
2022-11-24T20:06:44.598Z,7.13
2022-11-24T20:09:15.616Z,10.05
2022-11-24T20:11:43.687Z,7.75
2022-11-24T20:14:16.777Z,8.55
2022-11-24T20:16:46.758Z,9.85
2022-11-24T20:19:16.533Z,7.32
2022-11-24T20:21:50.313Z,7.40
2022-11-24T20:24:21.466Z,8.48
2022-11-24T20:26:52.262Z,5.65
2022-11-24T20:29:21.434Z,9.63
2022-11-24T20:31:58.370Z,8.38
2022-11-24T20:34:27.333Z,9.77
2022-11-24T20:36:55.054Z,9.48
2022-11-24T20:39:26.976Z,11.95
2022-11-24T20:41:56.022Z,6.65
2022-11-24T20:44:27.295Z,10.35
2022-11-24T20:47:01.518Z,10.50
2022-11-24T20:49:31.387Z,9.85
2022-11-24T20:51:59.585Z,9.38
2022-11-24T20:54:28.945Z,8.05
2022-11-24T20:56:59.216Z,9.30
2022-11-24T20:59:27.282Z,7.85
2022-11-24T21:01:59.646Z,6.97
2022-11-24T21:04:28.376Z,8.75
2022-11-24T21:06:56.506Z,8.27
2022-11-24T21:09:25.175Z,9.60
2022-11-24T21:11:52.855Z,6.88
2022-11-24T21:14:19.986Z,10.05
2022-11-24T21:16:47.537Z,8.27
2022-11-24T21:19:18.969Z,9.40
2022-11-24T21:21:47.898Z,9.10
2022-11-24T21:24:17.054Z,8.50
2022-11-24T21:26:47.925Z,9.02
2022-11-24T21:29:19.776Z,11.95
2022-11-24T21:31:46.980Z,7.57
2022-11-24T21:34:16.520Z,10.00
2022-11-24T21:36:45.334Z,12.10
2022-11-24T21:39:15.036Z,13.07
2022-11-24T21:41:42.904Z,11.05
2022-11-24T21:44:12.398Z,8.65
2022-11-24T21:46:45.104Z,10.52
2022-11-24T21:49:16.442Z,7.53
2022-11-24T21:51:43.389Z,7.88
2022-11-24T21:54:10.348Z,7.88
2022-11-24T21:56:37.393Z,6.65
2022-11-24T21:59:04.533Z,8.43
2022-11-24T22:01:31.622Z,8.60
2022-11-24T22:03:58.742Z,7.47
2022-11-24T22:06:25.813Z,6.60
2022-11-24T22:08:52.772Z,5.28
2022-11-24T22:11:22.275Z,8.60
2022-11-24T22:13:50.454Z,5.13
2022-11-24T22:16:20.116Z,6.07
2022-11-24T22:18:47.505Z,4.53
2022-11-24T22:21:17.353Z,7.00
2022-11-24T22:23:44.857Z,5.30
2022-11-24T22:26:17.382Z,4.43
2022-11-24T22:28:45.289Z,5.55
2022-11-24T22:31:24.032Z,4.55
2022-11-24T22:33:52.032Z,6.90
2022-11-24T22:36:21.173Z,4.30
2022-11-24T22:38:53.060Z,4.45
2022-11-24T22:41:20.033Z,4.07
2022-11-24T22:43:47.487Z,4.78
2022-11-24T22:46:17.186Z,4.85
2022-11-24T22:48:45.754Z,10.32
2022-11-24T22:51:15.885Z,4.20
2022-11-24T22:53:47.773Z,7.00
2022-11-24T22:56:15.675Z,6.82
2022-11-24T22:58:43.466Z,6.60
2022-11-24T23:01:23.868Z,7.30
2022-11-24T23:03:53.889Z,4.47
2022-11-24T23:06:23.804Z,6.10
2022-11-24T23:08:51.977Z,7.75
2022-11-24T23:11:25.861Z,4.70
2022-11-24T23:13:57.673Z,6.00
2022-11-24T23:16:24.905Z,8.02
2022-11-24T23:18:53.981Z,5.25
2022-11-24T23:21:29.637Z,5.65
2022-11-24T23:23:58.413Z,4.65
2022-11-24T23:26:33.349Z,7.38
2022-11-24T23:29:00.448Z,5.93
2022-11-24T23:31:29.160Z,6.70
2022-11-24T23:34:02.096Z,9.32
2022-11-24T23:36:30.580Z,6.15
2022-11-24T23:39:12.350Z,4.70
2022-11-24T23:41:39.368Z,5.93
2022-11-24T23:44:06.889Z,6.47
2022-11-24T23:46:34.084Z,10.60
2022-11-24T23:49:01.059Z,4.78
2022-11-24T23:51:30.313Z,6.60
2022-11-24T23:56:42.163Z,4.78
2022-11-24T23:59:12.580Z,5.10
